Time;durP1;ratioP1;P1;durP2;ratioP2;P2;SDS_P1;SDS_P2;PMS_P1;PMS_P2;Temp;Humidity;BMP_temperature;BMP_pressure;BME280_temperature;BME280_humidity;BME280_pressure;Samples;Min_cycle;Max_cycle;Signal;HPM_P1;HPM_P2
2022/11/10 00:00:45;;;;;;;4.47;2.10;;;;;;;11.59;82.83;100608.91;4942397;29;20235;-81
2022/11/10 00:03:12;;;;;;;4.00;2.03;;;;;;;11.67;82.81;100603.53;4942154;29;20581;-81
2022/11/10 00:05:39;;;;;;;5.57;2.93;;;;;;;11.59;82.57;100616.75;4941823;29;20241;-81
2022/11/10 00:08:07;;;;;;;6.80;2.80;;;;;;;11.58;82.19;100625.50;4942272;29;20595;-80
2022/11/10 00:10:55;;;;;;;4.30;2.20;;;;;;;11.57;81.97;100644.69;4941711;29;20217;-80
2022/11/10 00:13:25;;;;;;;4.73;2.23;;;;;;;11.58;81.77;100656.88;4942053;29;20218;-80
2022/11/10 00:18:35;;;;;;;4.67;2.60;;;;;;;11.64;82.44;100661.13;4942173;29;20230;-80
2022/11/10 00:21:04;;;;;;;3.63;1.93;;;;;;;11.67;82.39;100655.81;4941342;29;20223;-79
2022/11/10 00:23:30;;;;;;;2.97;1.63;;;;;;;11.71;81.76;100667.94;4941885;29;20223;-80
2022/11/10 00:25:57;;;;;;;4.37;2.00;;;;;;;11.73;81.74;100684.47;4941695;29;20238;-80
2022/11/10 00:28:25;;;;;;;3.80;2.30;;;;;;;11.72;81.80;100690.59;4941328;29;20213;-80
2022/11/10 00:30:52;;;;;;;5.30;2.30;;;;;;;11.62;82.18;100676.84;4940677;29;20214;-80
2022/11/10 00:33:20;;;;;;;6.60;2.63;;;;;;;11.51;82.91;100663.97;4941096;29;20735;-80
2022/11/10 00:35:47;;;;;;;6.40;3.60;;;;;;;11.57;82.91;100646.44;4941013;29;20234;-80
2022/11/10 00:38:13;;;;;;;6.73;3.00;;;;;;;11.65;82.47;100658.47;4941247;29;20219;-79
2022/11/10 00:40:39;;;;;;;5.53;2.80;;;;;;;11.68;82.40;100665.41;4941033;29;20215;-81
2022/11/10 00:43:07;;;;;;;4.87;2.77;;;;;;;11.58;82.55;100679.56;4940741;29;20730;-80
2022/11/10 00:45:35;;;;;;;5.10;3.60;;;;;;;11.45;82.72;100671.91;4940258;29;20325;-79
2022/11/10 00:48:01;;;;;;;9.63;4.23;;;;;;;11.44;83.02;100656.28;4941336;29;20212;-80
2022/11/10 00:50:28;;;;;;;10.27;4.47;;;;;;;11.43;83.49;100649.31;4940376;29;20217;-81
2022/11/10 00:52:54;;;;;;;6.53;4.07;;;;;;;11.44;83.29;100640.59;4941036;29;20210;-80
2022/11/10 00:55:21;;;;;;;3.83;3.20;;;;;;;11.33;83.83;100638.19;4940936;29;20226;-79
2022/11/10 00:57:47;;;;;;;5.83;3.80;;;;;;;11.33;83.72;100635.56;4940900;29;20215;-80
2022/11/10 01:00:14;;;;;;;5.50;3.97;;;;;;;11.36;83.99;100632.03;4939927;29;20814;-80
2022/11/10 01:02:41;;;;;;;6.00;3.07;;;;;;;11.27;83.98;100626.09;4940628;29;20221;-80
2022/11/10 01:05:09;;;;;;;7.13;3.83;;;;;;;11.28;84.18;100625.22;4940130;29;20236;-79
2022/11/10 01:07:35;;;;;;;6.33;3.40;;;;;;;11.32;83.77;100634.72;4940391;29;20218;-81
2022/11/10 01:10:02;;;;;;;9.10;3.90;;;;;;;11.21;84.36;100628.81;4940037;29;20211;-80
2022/11/10 01:12:29;;;;;;;3.87;2.90;;;;;;;11.22;84.52;100632.28;4939887;29;20206;-79
2022/11/10 01:14:56;;;;;;;5.77;2.90;;;;;;;11.27;84.40;100636.53;4940812;29;20254;-81
2022/11/10 01:17:22;;;;;;;7.60;3.17;;;;;;;11.33;83.82;100654.72;4940444;29;20222;-79
2022/11/10 01:19:50;;;;;;;5.03;3.30;;;;;;;11.02;84.98;100640.47;4940046;29;20211;-80
2022/11/10 01:22:16;;;;;;;8.30;3.40;;;;;;;10.93;85.34;100631.91;4939427;29;20680;-80
2022/11/10 01:24:43;;;;;;;7.10;4.33;;;;;;;10.96;85.47;100619.69;4940133;29;20240;-79
2022/11/10 01:27:09;;;;;;;5.53;3.77;;;;;;;11.06;85.05;100619.53;4940237;29;20224;-80
2022/11/10 01:29:36;;;;;;;8.27;4.47;;;;;;;11.18;84.68;100625.38;4939614;29;20215;-80
2022/11/10 01:32:02;;;;;;;7.63;3.60;;;;;;;11.24;84.85;100636.63;4939928;29;20216;-80
2022/11/10 01:34:28;;;;;;;4.77;3.33;;;;;;;11.23;84.51;100642.72;4939488;29;20224;-80
2022/11/10 01:36:56;;;;;;;5.40;3.43;;;;;;;11.24;84.08;100654.91;4939733;29;20231;-80
2022/11/10 01:39:23;;;;;;;5.87;3.80;;;;;;;11.08;84.75;100653.44;4938774;29;20216;-81
2022/11/10 01:41:49;;;;;;;8.03;3.47;;;;;;;10.96;85.17;100651.03;4938960;29;20207;-80
2022/11/10 01:44:18;;;;;;;4.80;3.40;;;;;;;11.07;85.32;100643.88;4939032;29;20269;-79
2022/11/10 01:46:44;;;;;;;4.33;3.27;;;;;;;11.04;84.94;100647.44;4938875;29;20240;-81
2022/11/10 01:49:12;;;;;;;9.17;4.13;;;;;;;10.89;85.78;100635.47;4939119;29;20214;-81
2022/11/10 01:51:44;;;;;;;6.47;4.00;;;;;;;11.00;85.80;100624.84;4938812;29;20218;-81
2022/11/10 01:54:17;;;;;;;7.13;3.67;;;;;;;11.03;85.31;100634.38;4938650;29;20212;-81
2022/11/10 01:56:47;;;;;;;6.00;3.67;;;;;;;11.06;85.04;100648.25;4938228;29;20230;-80
2022/11/10 01:59:19;;;;;;;6.47;4.23;;;;;;;11.01;85.17;100663.13;4938606;29;20210;-80
2022/11/10 02:01:49;;;;;;;8.07;4.47;;;;;;;11.03;85.01;100671.81;4938350;29;20210;-81
2022/11/10 02:04:19;;;;;;;4.60;3.60;;;;;;;11.04;85.34;100670.06;4938608;29;20225;-80
2022/11/10 02:06:48;;;;;;;4.30;3.07;;;;;;;10.99;85.81;100657.06;4938575;29;20230;-81
2022/11/10 02:09:17;;;;;;;7.03;3.93;;;;;;;11.00;85.63;100655.31;4938429;29;20212;-81
2022/11/10 02:11:44;;;;;;;8.27;4.20;;;;;;;10.99;85.51;100661.44;4937981;29;20214;-80
2022/11/10 02:14:11;;;;;;;10.90;4.00;;;;;;;10.97;85.00;100673.69;4939253;29;20207;-79
2022/11/10 02:16:39;;;;;;;6.43;3.83;;;;;;;10.91;85.11;100674.63;4940220;29;20238;-80
2022/11/10 02:19:14;;;;;;;5.73;4.43;;;;;;;10.91;85.08;100693.75;4939617;29;20211;-80
2022/11/10 02:21:42;;;;;;;6.90;4.33;;;;;;;10.94;85.11;100690.22;4938833;29;20206;-80
2022/11/10 02:24:08;;;;;;;5.17;4.23;;;;;;;10.90;85.29;100694.66;4938552;29;20218;-80
2022/11/10 02:26:37;;;;;;;4.77;4.27;;;;;;;10.88;85.38;100700.78;4938760;29;20238;-80
2022/11/10 02:29:04;;;;;;;4.30;3.50;;;;;;;10.83;85.59;100698.25;4938707;29;20215;-81
2022/11/10 02:31:32;;;;;;;7.43;4.63;;;;;;;10.80;85.87;100687.00;4938717;29;20589;-80
2022/11/10 02:33:58;;;;;;;5.40;3.97;;;;;;;10.72;86.45;100672.31;4938749;29;20239;-80
2022/11/10 02:36:24;;;;;;;6.63;5.03;;;;;;;10.75;85.98;100681.84;4938811;29;20238;-80
2022/11/10 02:38:52;;;;;;;7.53;4.93;;;;;;;10.70;85.72;100687.16;4938370;29;20211;-81
2022/11/10 02:41:19;;;;;;;5.43;4.33;;;;;;;10.69;86.24;100689.78;4937865;29;20235;-79
2022/11/10 02:43:45;;;;;;;5.47;4.40;;;;;;;10.64;86.38;100684.63;4938696;29;20206;-79
2022/11/10 02:46:12;;;;;;;5.07;4.60;;;;;;;10.68;86.05;100690.66;4938181;29;20237;-81
2022/11/10 02:48:38;;;;;;;5.10;4.53;;;;;;;10.68;85.68;100703.72;4938108;29;20212;-80
2022/11/10 02:51:05;;;;;;;6.83;4.73;;;;;;;10.56;86.65;100699.53;4937518;29;20209;-80
2022/11/10 02:53:31;;;;;;;5.87;5.03;;;;;;;10.43;87.32;100680.59;4937840;29;20209;-81
2022/11/10 02:56:00;;;;;;;7.73;4.43;;;;;;;10.45;87.35;100670.13;4937987;29;20252;-80
2022/11/10 02:58:27;;;;;;;4.77;3.73;;;;;;;10.42;87.42;100663.19;4938502;29;20223;-79
2022/11/10 03:00:53;;;;;;;7.33;4.80;;;;;;;10.45;87.48;100660.56;4937713;29;20217;-79
2022/11/10 03:03:20;;;;;;;6.63;5.17;;;;;;;10.48;87.33;100676.16;4937839;29;20216;-80
2022/11/10 03:05:46;;;;;;;5.90;5.33;;;;;;;10.52;87.06;100685.69;4937741;29;20239;-80
2022/11/10 03:08:12;;;;;;;5.47;3.97;;;;;;;10.47;86.86;100682.28;4939553;29;20225;-80
2022/11/10 03:10:41;;;;;;;7.33;4.47;;;;;;;10.46;86.84;100690.13;4941387;29;20207;-81
2022/11/10 03:13:10;;;;;;;6.33;5.03;;;;;;;10.42;86.86;100684.06;4941613;29;20211;-80
2022/11/10 03:15:36;;;;;;;5.80;4.30;;;;;;;10.36;86.96;100683.31;4941807;29;20293;-80
2022/11/10 03:18:04;;;;;;;8.07;5.10;;;;;;;10.37;87.26;100682.44;4942230;29;20210;-81
2022/11/10 03:20:30;;;;;;;6.37;5.30;;;;;;;10.30;88.03;100669.44;4941629;29;20236;-81
2022/11/10 03:23:00;;;;;;;5.53;4.97;;;;;;;10.29;88.75;100646.84;4941292;29;20220;-81
2022/11/10 03:25:27;;;;;;;7.07;6.07;;;;;;;10.24;88.62;100663.44;4941150;29;20236;-80
2022/11/10 03:27:53;;;;;;;6.63;5.27;;;;;;;10.28;88.98;100642.47;4941310;29;20208;-80
2022/11/10 03:30:21;;;;;;;8.10;4.83;;;;;;;10.25;88.51;100655.59;4940700;29;20243;-81
2022/11/10 03:32:49;;;;;;;8.10;5.73;;;;;;;10.24;88.79;100659.06;4941191;29;20218;-81
2022/11/10 03:35:16;;;;;;;8.37;6.63;;;;;;;10.26;88.43;100659.91;4940886;29;20232;-80
2022/11/10 03:37:43;;;;;;;6.27;5.70;;;;;;;10.25;88.61;100673.84;4941358;29;20210;-80
2022/11/10 03:40:10;;;;;;;6.63;5.80;;;;;;;10.23;88.63;100665.19;4941315;29;20711;-81
2022/11/10 03:42:41;;;;;;;8.60;6.10;;;;;;;10.10;89.92;100647.97;4941479;29;20690;-81
2022/11/10 03:45:09;;;;;;;7.63;6.40;;;;;;;10.07;90.49;100624.56;4940977;29;20230;-80
2022/11/10 03:47:36;;;;;;;11.50;5.70;;;;;;;10.04;89.89;100633.25;4941631;29;20210;-80
2022/11/10 03:50:03;;;;;;;8.53;7.47;;;;;;;9.80;91.65;100608.38;4940847;29;20558;-80
2022/11/10 03:52:30;;;;;;;8.50;7.53;;;;;;;9.90;91.93;100578.69;4940722;29;20203;-81
2022/11/10 03:54:56;;;;;;;5.87;5.13;;;;;;;9.92;91.09;100602.16;4940870;29;20204;-80
2022/11/10 03:57:23;;;;;;;8.97;6.03;;;;;;;9.87;91.19;100612.66;4941287;29;20216;-80
2022/11/10 03:59:49;;;;;;;9.00;6.43;;;;;;;9.87;91.90;100609.16;4940649;29;20221;-79
2022/11/10 04:02:16;;;;;;;6.53;5.60;;;;;;;9.91;91.42;100616.94;4940625;29;20209;-81
2022/11/10 04:10:12;;;;;;;9.40;8.37;;;;;;;9.62;94.08;100588.63;4940526;29;20223;-80
2022/11/10 04:18:23;;;;;;;10.50;7.73;;;;;;;9.80;93.86;100584.06;4940220;29;20735;-80
2022/11/10 04:20:52;;;;;;;9.37;8.10;;;;;;;9.86;94.07;100587.44;4940433;29;20647;-80
2022/11/10 04:23:27;;;;;;;8.77;7.47;;;;;;;9.85;94.35;100585.72;4940981;29;20218;-80
2022/11/10 04:28:39;;;;;;;13.73;7.90;;;;;;;9.99;94.00;100592.47;4941159;29;20208;-80
2022/11/10 04:31:06;;;;;;;8.40;7.17;;;;;;;10.10;93.66;100595.81;4940690;29;20219;-80
2022/11/10 04:33:32;;;;;;;7.60;6.80;;;;;;;10.15;93.49;100607.06;4941352;29;20212;-80
2022/11/10 04:36:00;;;;;;;9.40;8.10;;;;;;;10.13;93.18;100614.03;4941510;29;20232;-80
2022/11/10 04:38:27;;;;;;;9.07;7.17;;;;;;;10.23;93.48;100622.59;4940754;29;20579;-80
2022/11/10 04:40:53;;;;;;;7.90;7.20;;;;;;;10.33;92.93;100632.88;4940586;29;20212;-80
2022/11/10 04:43:20;;;;;;;9.87;7.07;;;;;;;10.38;92.61;100651.06;4941576;29;20219;-80
2022/11/10 04:45:46;;;;;;;7.73;6.90;;;;;;;10.44;92.37;100666.63;4952039;29;20248;-79
2022/11/10 04:48:13;;;;;;;10.13;7.73;;;;;;;10.36;92.07;100684.16;4953411;29;20216;-80
2022/11/10 04:50:39;;;;;;;12.50;7.97;;;;;;;10.39;92.63;100680.66;4949120;29;20209;-80
2022/11/10 04:53:07;;;;;;;12.00;8.20;;;;;;;10.37;92.76;100672.00;4948148;29;20214;-80
2022/11/10 04:55:33;;;;;;;14.03;8.97;;;;;;;10.42;92.66;100673.63;4950924;29;20229;-80
2022/11/10 04:58:01;;;;;;;9.57;8.50;;;;;;;10.42;92.52;100684.06;4952866;29;20196;-81
2022/11/10 05:00:27;;;;;;;9.83;7.57;;;;;;;10.44;92.54;100702.31;4952647;29;20213;-80
2022/11/10 05:02:54;;;;;;;11.50;7.83;;;;;;;10.51;92.33;100706.59;4945239;29;20559;-81
2022/11/10 05:05:23;;;;;;;13.80;7.97;;;;;;;10.49;92.33;100721.41;4941013;29;20239;-79
2022/11/10 05:07:50;;;;;;;9.77;7.53;;;;;;;10.53;92.24;100725.69;4939407;29;20223;-80
2022/11/10 05:10:18;;;;;;;7.90;7.10;;;;;;;10.58;92.10;100723.88;4939807;29;20212;-80
2022/11/10 05:12:44;;;;;;;8.77;7.63;;;;;;;10.59;91.87;100730.81;4939793;29;20247;-80
2022/11/10 05:15:11;;;;;;;11.17;8.47;;;;;;;10.66;91.59;100749.88;4939835;29;20624;-81
2022/11/10 05:17:37;;;;;;;11.97;7.67;;;;;;;10.67;91.42;100756.81;4939951;29;20209;-81
2022/11/10 05:20:05;;;;;;;12.13;7.63;;;;;;;10.62;91.56;100769.91;4939251;29;20212;-80
2022/11/10 05:22:31;;;;;;;10.80;7.27;;;;;;;10.48;91.28;100774.47;4938892;29;20220;-80
2022/11/10 05:24:58;;;;;;;8.63;7.80;;;;;;;10.52;91.79;100763.09;4939022;29;20236;-80
2022/11/10 05:27:25;;;;;;;9.30;7.60;;;;;;;10.61;91.70;100755.16;4939655;29;20219;-80
2022/11/10 05:29:52;;;;;;;8.20;7.40;;;;;;;10.56;92.14;100758.72;4938684;29;20227;-80
2022/11/10 05:32:18;;;;;;;10.80;7.87;;;;;;;10.37;92.97;100737.22;4938760;29;20216;-81
2022/11/10 05:34:45;;;;;;;9.37;8.07;;;;;;;10.45;92.83;100711.91;4939469;29;20696;-81
2022/11/10 05:37:11;;;;;;;12.40;7.80;;;;;;;10.58;92.49;100731.69;4939490;29;20216;-80
2022/11/10 05:39:39;;;;;;;8.83;8.00;;;;;;;10.63;92.12;100745.56;4938535;29;20234;-80
2022/11/10 05:42:05;;;;;;;9.43;8.03;;;;;;;10.63;92.02;100776.03;4938771;29;20206;-80
2022/11/10 05:44:33;;;;;;;12.73;8.57;;;;;;;10.59;92.26;100771.75;4939601;29;20595;-80
2022/11/10 05:47:00;;;;;;;13.90;8.43;;;;;;;10.70;91.87;100782.88;4938487;29;20789;-80
2022/11/10 05:49:27;;;;;;;7.60;6.90;;;;;;;10.75;91.75;100795.88;4938376;29;20213;-80
2022/11/10 05:51:53;;;;;;;10.83;8.30;;;;;;;10.75;91.83;100772.38;4938095;29;20688;-80
2022/11/10 05:54:19;;;;;;;10.40;7.03;;;;;;;10.73;91.87;100785.44;4938692;29;20218;-80
2022/11/10 05:56:46;;;;;;;9.83;7.33;;;;;;;10.69;92.07;100789.00;4942593;29;20230;-81
2022/11/10 05:59:12;;;;;;;10.90;7.90;;;;;;;10.70;92.75;100785.47;4937948;29;20224;-80
2022/11/10 06:01:40;;;;;;;11.17;7.83;;;;;;;10.73;92.60;100778.47;4937930;29;20717;-81
2022/11/10 06:04:06;;;;;;;9.03;7.03;;;;;;;10.80;92.44;100786.22;4938228;29;20198;-81
2022/11/10 06:06:33;;;;;;;7.93;6.50;;;;;;;10.91;91.94;100792.16;4938436;29;20233;-80
2022/11/10 06:08:59;;;;;;;7.77;6.63;;;;;;;10.99;91.85;100813.81;4938651;29;20216;-81
2022/11/10 06:11:26;;;;;;;9.43;7.23;;;;;;;11.00;91.19;100835.56;4938248;29;20699;-80
2022/11/10 06:13:52;;;;;;;11.47;6.63;;;;;;;11.01;91.07;100845.13;4938357;29;20226;-81
2022/11/10 06:16:18;;;;;;;7.07;6.33;;;;;;;10.96;91.03;100847.81;4938965;29;20230;-81
2022/11/10 06:18:46;;;;;;;8.33;5.90;;;;;;;11.00;90.76;100859.94;4941863;29;20685;-81
2022/11/10 06:21:13;;;;;;;10.90;6.10;;;;;;;10.89;91.23;100864.44;4939945;29;20222;-79
2022/11/10 06:23:39;;;;;;;10.70;6.93;;;;;;;10.91;91.39;100860.06;4940936;29;20216;-80
2022/11/10 06:26:05;;;;;;;8.97;6.20;;;;;;;11.02;91.23;100866.00;4940174;29;20236;-80
2022/11/10 06:28:32;;;;;;;9.77;6.47;;;;;;;10.91;91.19;100875.72;4939589;29;20716;-79
2022/11/10 06:30:58;;;;;;;8.97;6.17;;;;;;;10.99;91.07;100886.94;4940487;29;20212;-80
2022/11/10 06:33:25;;;;;;;8.23;6.20;;;;;;;11.04;90.93;100902.53;4939557;29;20222;-80
2022/11/10 06:35:52;;;;;;;15.13;7.87;;;;;;;11.02;90.75;100902.59;4939993;29;20606;-79
2022/11/10 06:38:19;;;;;;;15.37;6.00;;;;;;;11.10;90.64;100905.97;4939778;29;20261;-80
2022/11/10 06:40:45;;;;;;;12.47;6.53;;;;;;;11.10;91.25;100895.50;4939446;29;20685;-80
2022/11/10 06:43:12;;;;;;;9.77;5.47;;;;;;;11.14;91.15;100878.03;4940032;29;20220;-79
2022/11/10 06:45:38;;;;;;;6.47;5.83;;;;;;;11.00;91.37;100886.06;4939657;29;20707;-80
2022/11/10 06:48:07;;;;;;;7.33;5.67;;;;;;;11.08;91.54;100889.44;4940037;29;20695;-80
2022/11/10 06:50:34;;;;;;;10.87;6.53;;;;;;;11.12;91.17;100891.13;4939221;29;20677;-79
2022/11/10 06:53:02;;;;;;;6.03;5.43;;;;;;;11.15;91.01;100898.03;4939334;29;20366;-80
2022/11/10 06:55:29;;;;;;;8.43;5.73;;;;;;;11.17;91.29;100908.47;4939468;29;20228;-80
2022/11/10 06:57:59;;;;;;;12.13;6.23;;;;;;;11.02;92.02;100913.03;4939411;29;20230;-80
2022/11/10 07:00:27;;;;;;;12.30;6.10;;;;;;;11.10;91.82;100912.94;4939041;29;20268;-80
2022/11/10 07:03:01;;;;;;;11.17;5.03;;;;;;;11.15;91.03;100932.00;4938405;29;20211;-79
2022/11/10 07:05:28;;;;;;;10.07;5.70;;;;;;;11.09;91.53;100924.25;4938102;29;20245;-80
2022/11/10 07:07:54;;;;;;;8.93;5.10;;;;;;;11.09;91.53;100938.19;4939175;29;20598;-79
2022/11/10 07:10:22;;;;;;;8.93;5.33;;;;;;;11.13;91.48;100937.25;4938222;29;20599;-80
2022/11/10 07:12:55;;;;;;;14.30;5.93;;;;;;;11.13;91.27;100945.09;4938502;29;20203;-80
2022/11/10 07:15:22;;;;;;;9.93;6.73;;;;;;;10.92;91.91;100932.28;4936362;29;20249;-81
2022/11/10 07:17:48;;;;;;;11.73;7.57;;;;;;;11.05;92.06;100938.25;4938166;29;20202;-81
2022/11/10 07:20:15;;;;;;;13.37;7.23;;;;;;;11.02;92.56;100920.88;4937642;29;20202;-81
2022/11/10 07:22:42;;;;;;;9.73;6.67;;;;;;;10.81;92.63;100927.22;4937996;29;20670;-80
2022/11/10 07:25:09;;;;;;;11.50;7.73;;;;;;;10.91;92.64;100925.38;4938144;29;20215;-80
2022/11/10 07:27:36;;;;;;;9.87;6.27;;;;;;;10.95;92.69;100924.44;4938919;29;20222;-80
2022/11/10 07:30:04;;;;;;;9.30;6.47;;;;;;;11.00;92.39;100932.19;4938655;29;20221;-81
2022/11/10 07:32:30;;;;;;;12.10;6.80;;;;;;;11.08;92.50;100949.53;4938482;29;20201;-80
2022/11/10 07:34:56;;;;;;;8.57;5.90;;;;;;;11.10;91.81;100958.22;4938499;29;20207;-79
2022/11/10 07:37:23;;;;;;;9.20;5.70;;;;;;;11.09;92.11;100966.06;4938355;29;20206;-81
2022/11/10 07:39:49;;;;;;;9.27;5.83;;;;;;;11.15;92.68;100959.91;4937917;29;20458;-79
2022/11/10 07:42:16;;;;;;;10.57;5.70;;;;;;;11.20;92.35;100963.28;4938605;29;20203;-80
2022/11/10 07:44:44;;;;;;;11.23;5.80;;;;;;;11.11;93.02;100954.69;4939507;29;20200;-80
2022/11/10 07:47:10;;;;;;;7.57;5.20;;;;;;;11.21;93.04;100950.22;4938316;29;20226;-80
2022/11/10 07:49:37;;;;;;;13.27;6.97;;;;;;;11.31;92.79;100964.03;4937755;29;20367;-80
2022/11/10 07:52:04;;;;;;;5.93;5.07;;;;;;;11.08;93.13;100961.69;4937906;29;20211;-80
2022/11/10 07:54:30;;;;;;;8.00;5.47;;;;;;;11.11;93.82;100939.03;4939796;29;20218;-80
2022/11/10 07:56:57;;;;;;;8.53;5.07;;;;;;;11.12;93.47;100938.16;4941976;29;20218;-80
2022/11/10 07:59:23;;;;;;;8.40;5.07;;;;;;;11.27;93.65;100952.75;4941374;29;20216;-80
2022/11/10 08:01:51;;;;;;;8.63;5.43;;;;;;;11.22;93.34;100958.91;4941197;29;20215;-81
2022/11/10 08:04:18;;;;;;;9.80;5.07;;;;;;;11.36;93.23;100961.34;4942041;29;20791;-81
2022/11/10 08:06:44;;;;;;;8.57;5.57;;;;;;;11.42;93.07;100982.19;4941685;29;20233;-82
2022/11/10 08:09:11;;;;;;;10.70;5.40;;;;;;;11.47;92.48;100993.44;4941256;29;20219;-80
2022/11/10 08:11:37;;;;;;;9.47;5.27;;;;;;;11.51;91.96;101014.28;4941105;29;20219;-80
2022/11/10 08:14:03;;;;;;;14.10;5.93;;;;;;;11.59;91.61;101039.47;4940797;29;20220;-81
2022/11/10 08:16:30;;;;;;;11.17;5.23;;;;;;;11.58;91.33;101051.69;4940618;29;20230;-80
2022/11/10 08:18:58;;;;;;;12.23;6.00;;;;;;;11.59;91.70;101047.31;4941438;29;20211;-82
2022/11/10 08:21:24;;;;;;;11.03;5.43;;;;;;;11.59;91.82;101049.94;4940744;29;20218;-80
2022/11/10 08:23:50;;;;;;;10.00;4.90;;;;;;;11.72;91.01;101061.97;4941633;29;20213;-80
2022/11/10 08:26:18;;;;;;;9.70;4.90;;;;;;;11.73;90.98;101075.03;4941550;29;20239;-80
2022/11/10 08:28:44;;;;;;;10.47;5.57;;;;;;;11.71;90.82;101084.63;4941374;29;20207;-80
2022/11/10 08:31:11;;;;;;;10.57;4.13;;;;;;;11.70;90.01;101095.13;4941078;29;20211;-80
2022/11/10 08:33:37;;;;;;;6.43;4.37;;;;;;;11.75;90.06;101122.06;4940540;29;20231;-79
2022/11/10 08:36:05;;;;;;;9.43;5.37;;;;;;;11.85;90.16;101136.78;4941387;29;20613;-80
2022/11/10 08:38:32;;;;;;;11.87;4.70;;;;;;;11.91;89.45;101147.19;4940300;29;20215;-79
2022/11/10 08:40:58;;;;;;;9.10;4.17;;;;;;;11.98;89.12;101154.94;4940450;29;20211;-79
2022/11/10 08:43:25;;;;;;;6.13;4.53;;;;;;;12.03;88.95;101168.81;4939882;29;20214;-80
2022/11/10 08:45:54;;;;;;;13.73;4.87;;;;;;;12.00;88.74;101181.97;4937758;29;20277;-81
2022/11/10 08:48:21;;;;;;;13.20;5.13;;;;;;;12.04;87.84;101192.34;4937268;29;20590;-81
2022/11/10 08:50:48;;;;;;;7.50;4.33;;;;;;;11.91;87.96;101207.34;4939641;29;20208;-81
2022/11/10 08:53:18;;;;;;;8.07;4.40;;;;;;;11.87;88.35;101210.88;4937365;29;20270;-79
2022/11/10 08:55:45;;;;;;;10.17;5.00;;;;;;;12.00;88.38;101205.50;4939983;29;20227;-79
2022/11/10 08:58:14;;;;;;;8.37;4.90;;;;;;;11.99;87.80;101212.50;4939536;29;20208;-79
2022/11/10 09:00:40;;;;;;;9.70;4.37;;;;;;;12.08;87.77;101219.34;4939465;29;20209;-80
2022/11/10 09:03:11;;;;;;;8.20;4.40;;;;;;;12.06;86.75;101239.44;4940704;29;20206;-80
2022/11/10 09:05:37;;;;;;;11.13;4.33;;;;;;;12.16;87.43;101245.44;4939596;29;20229;-80
2022/11/10 09:08:04;;;;;;;8.30;4.70;;;;;;;12.21;87.59;101249.72;4939398;29;20226;-79
2022/11/10 09:10:34;;;;;;;8.87;4.67;;;;;;;12.11;86.61;101266.44;4937728;29;20205;-79
2022/11/10 09:13:01;;;;;;;5.63;4.17;;;;;;;12.23;86.59;101279.38;4937884;29;20209;-78
2022/11/10 09:15:28;;;;;;;11.43;5.67;;;;;;;12.20;86.64;101294.25;4938459;29;20227;-78
2022/11/10 09:17:57;;;;;;;9.80;4.53;;;;;;;12.24;86.38;101302.03;4938861;29;20211;-78
2022/11/10 09:20:24;;;;;;;10.40;5.00;;;;;;;12.07;86.74;101304.84;4937988;29;20224;-78
2022/11/10 09:22:50;;;;;;;7.87;4.50;;;;;;;12.11;85.05;101322.25;4938424;29;20237;-78
2022/11/10 09:25:17;;;;;;;9.57;5.20;;;;;;;11.94;83.51;101373.03;4938677;29;20237;-78
2022/11/10 09:27:44;;;;;;;11.07;5.70;;;;;;;12.07;83.38;101398.19;4938311;29;20633;-78
2022/11/10 09:30:11;;;;;;;4.83;4.30;;;;;;;12.11;83.32;101426.09;4938114;29;20633;-78
2022/11/10 09:32:38;;;;;;;8.50;5.10;;;;;;;12.12;82.55;101444.38;4937346;29;20229;-77
2022/11/10 09:35:05;;;;;;;6.37;4.47;;;;;;;12.23;82.77;101443.41;4936891;29;20235;-78
2022/11/10 09:37:32;;;;;;;10.40;4.90;;;;;;;12.16;82.78;101445.22;4937901;29;20689;-78
2022/11/10 09:39:58;;;;;;;10.80;5.93;;;;;;;12.07;82.57;101459.25;4938139;29;20218;-78
2022/11/10 09:42:32;;;;;;;9.43;5.07;;;;;;;12.28;83.06;101434.63;4937878;29;20219;-78
2022/11/10 09:45:07;;;;;;;10.17;5.57;;;;;;;12.36;82.61;101446.78;4937785;29;20211;-77
2022/11/10 09:47:41;;;;;;;8.23;5.03;;;;;;;12.43;82.93;101438.84;4937206;29;20227;-78
2022/11/10 09:50:14;;;;;;;7.90;4.13;;;;;;;12.49;81.89;101459.72;4936584;29;20562;-78
2022/11/10 09:52:42;;;;;;;11.43;4.00;;;;;;;12.44;81.75;101468.50;4937624;29;20223;-77
2022/11/10 09:55:26;;;;;;;5.37;3.33;;;;;;;12.47;81.17;101492.06;4937216;29;20239;-78
2022/11/10 09:57:56;;;;;;;8.17;4.10;;;;;;;12.39;81.66;101502.59;4936394;29;20230;-78
2022/11/10 10:00:24;;;;;;;10.50;3.43;;;;;;;12.31;81.46;101492.19;4936414;29;20207;-78
2022/11/10 10:02:53;;;;;;;6.10;3.40;;;;;;;12.50;81.68;101487.63;4936673;29;20210;-77
2022/11/10 10:05:50;;;;;;;5.83;3.80;;;;;;;12.53;81.75;101471.03;4937077;29;20286;-78
2022/11/10 10:08:24;;;;;;;8.23;4.17;;;;;;;12.60;81.80;101474.47;4936730;29;20232;-78
2022/11/10 10:11:01;;;;;;;8.60;3.70;;;;;;;12.64;81.46;101470.91;4936884;29;20217;-78
2022/11/10 10:13:55;;;;;;;10.87;4.13;;;;;;;12.64;81.07;101473.53;4936534;29;20223;-77
2022/11/10 10:16:33;;;;;;;13.10;3.70;;;;;;;12.74;80.60;101479.53;4936036;29;20232;-78
2022/11/10 10:19:12;;;;;;;4.67;3.00;;;;;;;12.65;80.55;101501.47;4936161;29;20216;-78
2022/11/10 10:21:49;;;;;;;11.03;3.37;;;;;;;12.58;81.22;101491.94;4935925;29;20219;-78
2022/11/10 10:24:19;;;;;;;8.50;3.40;;;;;;;12.60;81.81;101482.31;4936066;29;20216;-78
2022/11/10 10:26:51;;;;;;;11.40;2.83;;;;;;;12.56;81.00;101494.56;4936485;29;20241;-78
2022/11/10 10:29:21;;;;;;;6.40;2.87;;;;;;;12.59;81.22;101475.34;4936361;29;20207;-78
2022/11/10 10:31:51;;;;;;;10.67;3.73;;;;;;;12.72;81.48;101482.19;4935957;29;20216;-78
2022/11/10 10:34:20;;;;;;;5.63;2.80;;;;;;;12.71;81.06;101501.41;4935907;29;20213;-78
2022/11/10 10:36:46;;;;;;;10.97;2.90;;;;;;;12.71;80.88;101504.91;4936045;29;20605;-77
2022/11/10 10:39:17;;;;;;;9.33;3.33;;;;;;;12.62;81.22;101498.88;4936335;29;20211;-78
2022/11/10 10:41:45;;;;;;;7.23;3.10;;;;;;;12.73;80.98;101497.03;4935738;29;20207;-78
2022/11/10 10:44:13;;;;;;;5.63;2.83;;;;;;;12.76;81.14;101489.13;4936015;29;20212;-77
2022/11/10 10:46:46;;;;;;;8.30;3.20;;;;;;;12.89;81.66;101480.22;4935769;29;20235;-77
2022/11/10 10:49:18;;;;;;;5.13;2.80;;;;;;;12.87;80.47;101489.88;4936426;29;20207;-78
2022/11/10 10:51:45;;;;;;;7.70;3.57;;;;;;;12.99;80.87;101491.47;4935398;29;20227;-78
2022/11/10 10:54:27;;;;;;;9.93;2.40;;;;;;;12.97;81.13;101482.78;4936543;29;20212;-78
2022/11/10 10:57:06;;;;;;;8.83;2.90;;;;;;;13.11;81.45;101475.59;4936219;29;20227;-78
2022/11/10 10:59:34;;;;;;;6.27;2.77;;;;;;;13.09;80.77;101481.75;4935973;29;20211;-78
2022/11/10 11:02:00;;;;;;;5.97;2.27;;;;;;;13.25;81.05;101474.56;4935672;29;20219;-78
2022/11/10 11:04:32;;;;;;;8.27;2.20;;;;;;;13.29;79.66;101511.22;4936761;29;20215;-78
2022/11/10 11:07:02;;;;;;;8.63;2.33;;;;;;;13.25;78.27;101559.31;4936783;29;20610;-78
2022/11/10 11:09:30;;;;;;;7.23;3.47;;;;;;;13.36;78.33;101568.84;4936212;29;20215;-78
2022/11/10 11:12:02;;;;;;;5.97;1.70;;;;;;;13.45;78.59;101560.88;4935739;29;20220;-77
2022/11/10 11:14:30;;;;;;;6.07;2.67;;;;;;;13.44;77.53;101590.63;4935490;29;20701;-78
2022/11/10 11:16:58;;;;;;;5.27;2.13;;;;;;;13.42;77.51;101626.47;4936390;29;20230;-78
2022/11/10 11:19:27;;;;;;;7.30;2.17;;;;;;;13.49;78.40;101613.25;4936075;29;20726;-78
2022/11/10 11:22:16;;;;;;;6.33;2.07;;;;;;;13.61;78.11;101614.00;4934937;29;20687;-78
2022/11/10 11:24:48;;;;;;;6.57;2.13;;;;;;;13.47;76.90;101643.03;4935471;29;20216;-78
2022/11/10 11:27:20;;;;;;;8.80;2.13;;;;;;;13.41;77.18;101658.84;4935273;29;20417;-77
2022/11/10 11:30:01;;;;;;;7.37;2.33;;;;;;;13.50;77.27;101636.00;4938097;29;20215;-77
2022/11/10 11:32:40;;;;;;;7.73;2.43;;;;;;;13.41;77.25;101646.59;4939689;29;20213;-79
2022/11/10 11:35:20;;;;;;;6.20;2.53;;;;;;;13.28;76.58;101655.47;4940199;29;20719;-79
2022/11/10 11:37:57;;;;;;;4.73;1.70;;;;;;;13.29;77.30;101649.31;4940736;29;20211;-78
2022/11/10 11:40:29;;;;;;;6.83;2.07;;;;;;;13.28;76.96;101639.72;4940478;29;20210;-79
2022/11/10 11:43:07;;;;;;;9.47;2.93;;;;;;;13.32;76.14;101662.44;4941070;29;20222;-79
2022/11/10 11:45:46;;;;;;;5.80;2.10;;;;;;;13.37;76.82;101660.63;4940295;29;20264;-79